createdAt,value
2019-05-19T00:01:06.206Z,86.20
2019-05-19T00:03:35.247Z,86.20
2019-05-19T00:06:04.390Z,86.20
2019-05-19T00:08:33.790Z,87.00
2019-05-19T00:11:02.738Z,86.80
2019-05-19T00:13:31.506Z,86.30
2019-05-19T00:16:00.759Z,86.40
2019-05-19T00:18:29.795Z,86.50
2019-05-19T00:20:58.601Z,86.40
2019-05-19T00:23:27.431Z,86.40
2019-05-19T00:25:56.348Z,86.50
2019-05-19T00:28:25.336Z,86.40
2019-05-19T00:30:54.398Z,86.40
2019-05-19T00:33:23.427Z,86.40
2019-05-19T00:35:52.864Z,86.40
2019-05-19T00:38:21.632Z,86.40
2019-05-19T00:40:50.663Z,86.40
2019-05-19T00:43:19.993Z,86.30
2019-05-19T00:45:49.107Z,86.50
2019-05-19T00:48:17.971Z,86.50
2019-05-19T00:50:47.558Z,87.30
2019-05-19T00:53:16.407Z,86.70
2019-05-19T00:55:45.516Z,87.50
2019-05-19T00:58:14.826Z,86.90
2019-05-19T01:00:43.663Z,86.80
2019-05-19T01:03:12.662Z,87.30
2019-05-19T01:05:41.562Z,87.20
2019-05-19T01:08:10.326Z,87.20
2019-05-19T01:10:39.127Z,87.20
2019-05-19T01:13:07.962Z,87.20
2019-05-19T01:15:36.934Z,87.20
2019-05-19T01:18:06.030Z,87.70
2019-05-19T01:20:34.998Z,87.50
2019-05-19T01:23:03.903Z,87.60
2019-05-19T01:25:32.831Z,87.50
2019-05-19T01:28:01.934Z,87.50
2019-05-19T01:30:31.077Z,87.60
2019-05-19T01:33:00.245Z,87.50
2019-05-19T01:35:29.172Z,87.60
2019-05-19T01:37:58.069Z,87.70
2019-05-19T01:40:26.926Z,87.60
2019-05-19T01:42:56.225Z,87.60
2019-05-19T01:45:26.309Z,87.50
2019-05-19T01:47:55.114Z,87.40
2019-05-19T01:50:23.905Z,87.50
2019-05-19T01:52:53.363Z,87.60
2019-05-19T01:55:22.296Z,87.50
2019-05-19T01:57:51.319Z,87.40
2019-05-19T02:00:20.247Z,87.50
2019-05-19T02:02:49.151Z,87.50
2019-05-19T02:05:18.326Z,87.50
2019-05-19T02:07:47.933Z,87.60
2019-05-19T02:10:17.101Z,87.60
2019-05-19T02:12:46.237Z,87.50
2019-05-19T02:15:15.401Z,87.50
2019-05-19T02:17:44.454Z,87.60
2019-05-19T02:20:14.483Z,87.60
2019-05-19T02:22:43.569Z,87.70
2019-05-19T02:25:12.498Z,87.70
2019-05-19T02:27:41.456Z,87.60
2019-05-19T02:30:11.051Z,87.60
2019-05-19T02:32:40.138Z,87.70
2019-05-19T02:35:09.905Z,87.70
2019-05-19T02:37:39.080Z,87.80
2019-05-19T02:40:08.486Z,87.80
2019-05-19T02:42:41.191Z,87.90
2019-05-19T02:45:10.795Z,88.00
2019-05-19T02:47:42.801Z,88.00
2019-05-19T02:50:12.508Z,88.20
2019-05-19T02:52:43.823Z,88.10
2019-05-19T02:55:13.362Z,88.10
2019-05-19T02:57:43.110Z,88.20
2019-05-19T03:00:13.440Z,88.00
2019-05-19T03:02:42.347Z,88.20
2019-05-19T03:05:11.748Z,88.00
2019-05-19T03:07:40.535Z,88.00
2019-05-19T03:10:11.190Z,88.00
2019-05-19T03:12:40.275Z,88.10
2019-05-19T03:15:09.552Z,88.20
2019-05-19T03:17:38.333Z,88.20
2019-05-19T03:20:07.469Z,88.40
2019-05-19T03:22:36.245Z,88.40
2019-05-19T03:25:05.868Z,88.10
2019-05-19T03:27:34.640Z,88.10
2019-05-19T03:30:21.846Z,88.20
2019-05-19T03:32:55.010Z,88.00
2019-05-19T03:35:24.090Z,88.00
2019-05-19T03:37:54.068Z,88.00
2019-05-19T03:40:22.920Z,88.20
2019-05-19T03:42:52.097Z,88.40
2019-05-19T03:45:21.397Z,88.60
2019-05-19T03:47:50.380Z,88.80
2019-05-19T03:50:19.323Z,88.80
2019-05-19T03:52:48.633Z,88.80
2019-05-19T03:55:17.825Z,88.70
2019-05-19T03:57:47.479Z,88.50
2019-05-19T04:00:16.530Z,88.60
2019-05-19T04:02:45.459Z,88.70
2019-05-19T04:05:14.358Z,88.80
2019-05-19T04:07:43.161Z,88.80
2019-05-19T04:10:12.530Z,88.90
2019-05-19T04:12:41.431Z,89.00
2019-05-19T04:15:10.604Z,89.00
2019-05-19T04:17:39.628Z,88.90
2019-05-19T04:20:09.488Z,88.80
2019-05-19T04:22:38.270Z,88.60
2019-05-19T04:25:08.430Z,88.70
2019-05-19T04:27:37.210Z,88.80
2019-05-19T04:30:07.327Z,88.70
2019-05-19T04:32:36.343Z,88.80
2019-05-19T04:35:05.532Z,88.90
2019-05-19T04:37:34.382Z,88.90
2019-05-19T04:40:03.349Z,88.80
2019-05-19T04:42:33.303Z,89.00
2019-05-19T04:45:02.373Z,88.90
2019-05-19T04:47:31.471Z,89.00
2019-05-19T04:50:00.676Z,89.10
2019-05-19T04:52:29.547Z,89.10
2019-05-19T04:54:58.731Z,89.20
2019-05-19T04:57:27.789Z,89.10
2019-05-19T04:59:56.888Z,89.20
2019-05-19T05:02:25.721Z,89.20
2019-05-19T05:04:54.819Z,89.40
2019-05-19T05:07:23.931Z,89.40
2019-05-19T05:09:52.703Z,89.30
2019-05-19T05:12:22.175Z,89.50
2019-05-19T05:14:51.168Z,89.60
2019-05-19T05:17:20.281Z,89.60
2019-05-19T05:19:49.144Z,89.60
2019-05-19T05:22:22.019Z,89.80
2019-05-19T05:24:48.684Z,89.80
2019-05-19T05:27:17.471Z,89.90
2019-05-19T05:29:46.637Z,89.90
2019-05-19T05:32:15.496Z,90.00
2019-05-19T05:34:44.268Z,90.10
2019-05-19T05:37:13.412Z,90.00
2019-05-19T05:39:42.426Z,90.40
2019-05-19T05:42:11.931Z,90.10
2019-05-19T05:44:41.212Z,90.10
2019-05-19T05:47:09.996Z,90.10
2019-05-19T05:49:38.871Z,90.00
2019-05-19T05:52:09.032Z,90.00
2019-05-19T05:54:38.001Z,90.10
2019-05-19T05:57:07.057Z,90.00
2019-05-19T05:59:35.829Z,90.10
2019-05-19T06:02:04.799Z,90.10
2019-05-19T06:04:33.816Z,90.10
2019-05-19T06:07:02.864Z,90.10
2019-05-19T06:09:31.636Z,90.10
2019-05-19T06:12:00.822Z,90.00
2019-05-19T06:14:29.593Z,90.00
2019-05-19T06:16:58.428Z,90.00
2019-05-19T06:19:27.350Z,89.90
2019-05-19T06:21:56.153Z,89.90
2019-05-19T06:24:24.936Z,89.80
2019-05-19T06:26:53.909Z,89.80
2019-05-19T06:29:22.689Z,89.80
2019-05-19T06:31:52.274Z,89.70
2019-05-19T06:34:21.116Z,89.80
2019-05-19T06:36:50.147Z,89.70
2019-05-19T06:39:18.976Z,89.60
2019-05-19T06:41:47.838Z,89.70
2019-05-19T06:44:16.853Z,89.50
2019-05-19T06:46:46.164Z,89.70
2019-05-19T06:49:14.944Z,89.50
2019-05-19T06:51:43.992Z,89.60
2019-05-19T06:54:13.340Z,89.50
2019-05-19T06:56:42.632Z,89.40
2019-05-19T06:59:11.680Z,89.20
2019-05-19T07:01:40.452Z,89.10
2019-05-19T07:04:10.123Z,89.10
2019-05-19T07:06:39.000Z,88.90
2019-05-19T07:09:08.331Z,88.70
2019-05-19T07:11:37.402Z,88.60
2019-05-19T07:14:06.211Z,88.50
2019-05-19T07:16:35.350Z,88.50
2019-05-19T07:19:04.279Z,88.40
2019-05-19T07:21:33.059Z,88.30
2019-05-19T07:24:01.865Z,88.40
2019-05-19T07:26:30.665Z,88.40
2019-05-19T07:28:59.758Z,88.20
2019-05-19T07:31:28.806Z,88.30
2019-05-19T07:33:57.601Z,88.10
2019-05-19T07:36:26.465Z,88.20
2019-05-19T07:38:55.568Z,88.20
2019-05-19T07:41:24.344Z,88.30
2019-05-19T07:43:53.151Z,88.40
2019-05-19T07:46:22.192Z,88.50
2019-05-19T07:48:51.327Z,88.50
2019-05-19T07:51:20.496Z,88.30
2019-05-19T07:53:49.530Z,88.40
2019-05-19T07:56:18.856Z,88.30
2019-05-19T07:58:48.140Z,88.20
2019-05-19T08:01:17.077Z,88.20
2019-05-19T08:03:46.465Z,88.00
2019-05-19T08:06:15.281Z,87.80
2019-05-19T08:08:44.520Z,87.90
2019-05-19T08:11:13.537Z,87.80
2019-05-19T08:13:42.705Z,87.80
2019-05-19T08:16:11.746Z,87.60
2019-05-19T08:18:40.889Z,87.50
2019-05-19T08:21:10.070Z,87.30
2019-05-19T08:23:39.202Z,87.50
2019-05-19T08:26:08.220Z,87.40
2019-05-19T08:28:37.117Z,87.40
2019-05-19T08:31:06.069Z,87.50
2019-05-19T08:33:34.921Z,87.40
2019-05-19T08:36:03.841Z,87.30
2019-05-19T08:38:32.637Z,87.50
2019-05-19T08:41:01.709Z,87.50
2019-05-19T08:43:30.561Z,87.40
2019-05-19T08:45:59.370Z,87.40
2019-05-19T08:48:28.297Z,87.30
2019-05-19T08:50:58.169Z,87.10
2019-05-19T08:53:26.960Z,87.10
2019-05-19T08:55:56.136Z,87.00
2019-05-19T08:58:24.952Z,87.00
2019-05-19T09:00:53.845Z,87.00
2019-05-19T09:03:22.664Z,87.00
2019-05-19T09:05:51.518Z,86.80
2019-05-19T09:08:20.410Z,86.80
2019-05-19T09:10:49.256Z,86.70
2019-05-19T09:13:18.221Z,86.60
2019-05-19T09:15:47.257Z,86.70
2019-05-19T09:18:16.379Z,86.70
2019-05-19T09:20:45.396Z,86.20
2019-05-19T09:23:14.289Z,86.60
2019-05-19T09:25:43.305Z,86.50
2019-05-19T09:28:12.428Z,86.50
2019-05-19T09:30:41.257Z,86.50
2019-05-19T09:33:10.477Z,86.50
2019-05-19T09:35:39.510Z,86.40
2019-05-19T09:38:08.344Z,86.40
2019-05-19T09:40:37.436Z,86.40
2019-05-19T09:43:06.211Z,86.50
2019-05-19T09:45:36.689Z,86.40
2019-05-19T09:48:05.793Z,86.20
2019-05-19T09:50:34.857Z,86.20
2019-05-19T09:53:03.922Z,86.20
2019-05-19T09:55:33.102Z,86.20
2019-05-19T09:58:02.367Z,86.10
2019-05-19T10:00:31.301Z,86.10
2019-05-19T10:03:00.080Z,85.90
2019-05-19T10:05:28.995Z,86.00
2019-05-19T10:07:58.057Z,86.00
2019-05-19T10:10:48.305Z,86.10
2019-05-19T10:13:17.133Z,85.80
2019-05-19T10:15:46.257Z,85.80
2019-05-19T10:18:15.499Z,85.40
2019-05-19T10:20:44.644Z,85.50
2019-05-19T10:23:13.431Z,85.50
2019-05-19T10:25:42.233Z,85.70
2019-05-19T10:28:11.083Z,85.60
2019-05-19T10:30:40.319Z,85.50
2019-05-19T10:33:09.167Z,85.30
2019-05-19T10:35:38.544Z,85.00
2019-05-19T10:38:07.612Z,84.60
2019-05-19T10:40:36.657Z,84.30
2019-05-19T10:43:05.556Z,84.30
2019-05-19T10:45:34.399Z,84.00
2019-05-19T10:48:03.251Z,83.80
2019-05-19T10:50:32.032Z,83.10
2019-05-19T10:53:00.893Z,82.60
2019-05-19T10:55:36.372Z,83.00
2019-05-19T10:58:00.990Z,82.80
2019-05-19T11:00:29.936Z,82.50
2019-05-19T11:02:58.786Z,82.60
2019-05-19T11:05:27.991Z,82.30
2019-05-19T11:07:56.891Z,82.10
2019-05-19T11:10:25.691Z,81.80
2019-05-19T11:12:54.757Z,81.50
2019-05-19T11:15:25.338Z,81.30
2019-05-19T11:17:54.453Z,81.30
2019-05-19T11:20:23.616Z,81.20
2019-05-19T11:22:52.740Z,81.00
2019-05-19T11:25:33.494Z,80.90
2019-05-19T11:27:53.776Z,80.80
2019-05-19T11:30:22.676Z,80.20
2019-05-19T11:32:51.589Z,80.00
2019-05-19T11:35:20.399Z,80.10
2019-05-19T11:37:49.197Z,80.00
2019-05-19T11:40:18.902Z,80.00
2019-05-19T11:42:47.700Z,79.70
2019-05-19T11:45:16.680Z,78.90
2019-05-19T11:47:45.488Z,79.60
2019-05-19T11:50:15.171Z,79.30
2019-05-19T11:52:44.468Z,79.10
2019-05-19T11:55:13.939Z,78.40
2019-05-19T11:57:43.508Z,77.80
2019-05-19T12:00:12.700Z,77.80
2019-05-19T12:02:41.746Z,77.40
2019-05-19T12:05:11.006Z,78.30
2019-05-19T12:07:39.859Z,77.90
2019-05-19T12:10:08.997Z,77.20
2019-05-19T12:12:37.784Z,77.60
2019-05-19T12:15:07.060Z,77.90
2019-05-19T12:17:35.954Z,78.00
2019-05-19T12:20:05.145Z,77.90
2019-05-19T12:22:34.095Z,78.00
2019-05-19T12:25:02.972Z,78.30
2019-05-19T12:27:33.698Z,78.30
2019-05-19T12:30:02.734Z,78.40
2019-05-19T12:32:31.541Z,78.70
2019-05-19T12:35:00.339Z,78.40
2019-05-19T12:37:29.591Z,78.50
2019-05-19T12:39:58.369Z,78.70
2019-05-19T12:42:27.190Z,78.30
2019-05-19T12:44:56.208Z,78.70
2019-05-19T12:47:25.328Z,78.40
2019-05-19T12:49:54.867Z,78.30
2019-05-19T12:52:23.818Z,78.70
2019-05-19T12:54:54.322Z,79.10
2019-05-19T12:57:23.550Z,78.80
2019-05-19T12:59:52.335Z,78.90
2019-05-19T13:02:21.220Z,78.90
2019-05-19T13:05:04.506Z,79.20
2019-05-19T13:07:21.970Z,79.20
2019-05-19T13:09:50.991Z,79.40
2019-05-19T13:12:19.834Z,79.50
2019-05-19T13:14:48.943Z,80.00
2019-05-19T13:17:18.305Z,80.30
2019-05-19T13:19:47.352Z,80.50
2019-05-19T13:22:16.462Z,80.40
2019-05-19T13:24:45.655Z,80.60
2019-05-19T13:27:14.972Z,80.80
2019-05-19T13:30:04.232Z,81.10
2019-05-19T13:32:33.514Z,81.20
2019-05-19T13:35:02.304Z,81.40
2019-05-19T13:37:31.520Z,81.60
2019-05-19T13:40:00.561Z,81.80
2019-05-19T13:42:29.644Z,81.80
2019-05-19T13:44:58.717Z,81.90
2019-05-19T13:47:27.526Z,82.10
2019-05-19T13:49:57.876Z,82.20
2019-05-19T13:52:26.709Z,82.30
2019-05-19T13:54:55.936Z,82.40
2019-05-19T13:57:24.847Z,82.40
2019-05-19T13:59:53.653Z,82.40
2019-05-19T14:02:22.511Z,82.30
2019-05-19T14:04:51.600Z,82.40
2019-05-19T14:07:20.524Z,82.10
2019-05-19T14:09:49.627Z,82.50
2019-05-19T14:12:18.432Z,82.60
2019-05-19T14:14:47.339Z,82.60
2019-05-19T14:17:16.280Z,82.80
2019-05-19T14:19:45.291Z,83.10
2019-05-19T14:22:14.096Z,83.10
2019-05-19T14:24:43.064Z,83.20
2019-05-19T14:27:14.231Z,83.50
2019-05-19T14:29:42.853Z,83.40
2019-05-19T14:32:11.751Z,83.60
2019-05-19T14:34:40.673Z,83.60
2019-05-19T14:37:09.598Z,83.70
2019-05-19T14:39:38.384Z,84.10
2019-05-19T14:42:10.970Z,84.30
2019-05-19T14:44:39.854Z,84.40
2019-05-19T14:47:08.759Z,84.60
2019-05-19T14:49:37.831Z,84.60
2019-05-19T14:52:06.865Z,85.00
2019-05-19T14:54:37.367Z,85.10
2019-05-19T14:57:06.191Z,85.50
2019-05-19T14:59:35.232Z,85.80
2019-05-19T15:02:04.449Z,85.80
2019-05-19T15:04:33.565Z,85.60
2019-05-19T15:07:02.389Z,85.70
2019-05-19T15:09:31.175Z,85.50
2019-05-19T15:12:00.312Z,85.80
2019-05-19T15:14:29.112Z,86.10
2019-05-19T15:16:58.011Z,86.10
2019-05-19T15:19:27.166Z,85.90
2019-05-19T15:21:56.134Z,85.60
2019-05-19T15:24:24.951Z,85.50
2019-05-19T15:26:53.882Z,85.50
2019-05-19T15:29:22.925Z,85.50
2019-05-19T15:31:51.719Z,85.60
2019-05-19T15:34:20.685Z,85.50
2019-05-19T15:36:49.635Z,85.10
2019-05-19T15:39:18.704Z,85.70
2019-05-19T15:41:47.597Z,85.90
2019-05-19T15:44:16.904Z,86.20
2019-05-19T15:46:46.070Z,86.40
2019-05-19T15:49:15.024Z,86.50
2019-05-19T15:51:59.214Z,86.20
2019-05-19T15:54:14.612Z,86.20
2019-05-19T15:56:44.332Z,86.30
2019-05-19T15:59:14.371Z,86.20
2019-05-19T16:01:43.274Z,86.30
2019-05-19T16:04:12.134Z,86.20
2019-05-19T16:06:41.096Z,86.30
2019-05-19T16:09:09.970Z,86.10
2019-05-19T16:11:38.751Z,86.20
2019-05-19T16:14:07.688Z,86.40
2019-05-19T16:16:36.531Z,86.40
2019-05-19T16:19:05.402Z,86.60
2019-05-19T16:21:34.448Z,86.20
2019-05-19T16:24:03.444Z,86.10
2019-05-19T16:26:32.281Z,86.10
2019-05-19T16:29:01.140Z,86.30
2019-05-19T16:31:30.037Z,86.30
2019-05-19T16:33:59.208Z,86.40
2019-05-19T16:36:27.996Z,86.30
2019-05-19T16:38:57.340Z,86.40
2019-05-19T16:41:26.141Z,86.10
2019-05-19T16:43:54.931Z,86.00
2019-05-19T16:46:23.950Z,86.60
2019-05-19T16:48:52.854Z,85.80
2019-05-19T16:51:21.785Z,86.40
2019-05-19T16:53:52.935Z,85.80
2019-05-19T16:56:21.939Z,86.20
2019-05-19T16:58:50.882Z,85.90
2019-05-19T17:01:20.193Z,86.20
2019-05-19T17:03:49.092Z,86.50
2019-05-19T17:06:18.125Z,86.60
2019-05-19T17:08:47.452Z,86.80
2019-05-19T17:11:18.649Z,86.60
2019-05-19T17:13:47.940Z,86.80
2019-05-19T17:16:17.687Z,86.70
2019-05-19T17:18:46.705Z,86.80
2019-05-19T17:21:15.886Z,86.80
2019-05-19T17:23:44.903Z,86.80
2019-05-19T17:26:13.749Z,86.70
2019-05-19T17:28:42.532Z,87.00
2019-05-19T17:31:11.416Z,87.00
2019-05-19T17:33:40.478Z,87.00
2019-05-19T17:36:10.023Z,87.10
2019-05-19T17:38:38.810Z,87.50
2019-05-19T17:41:08.211Z,87.60
2019-05-19T17:43:37.553Z,87.80
2019-05-19T17:46:06.677Z,88.00
2019-05-19T17:48:35.920Z,88.00
2019-05-19T17:51:05.213Z,88.10
2019-05-19T17:53:34.496Z,88.10
2019-05-19T17:56:03.956Z,88.20
2019-05-19T17:58:33.802Z,88.30
2019-05-19T18:01:02.593Z,88.50
2019-05-19T18:03:31.661Z,88.30
2019-05-19T18:06:00.509Z,88.40
2019-05-19T18:08:29.603Z,88.50
2019-05-19T18:10:58.648Z,88.60
2019-05-19T18:13:28.096Z,88.60
2019-05-19T18:15:56.954Z,88.70
2019-05-19T18:18:25.972Z,88.30
2019-05-19T18:20:54.903Z,88.10
2019-05-19T18:23:23.823Z,88.10
2019-05-19T18:25:53.195Z,88.20
2019-05-19T18:28:22.016Z,88.10
2019-05-19T18:30:51.148Z,88.00
2019-05-19T18:33:19.979Z,88.10
2019-05-19T18:35:48.929Z,88.20
2019-05-19T18:38:18.218Z,88.30
2019-05-19T18:40:47.166Z,88.20
2019-05-19T18:43:16.293Z,88.30
2019-05-19T18:45:45.087Z,88.50
2019-05-19T18:48:13.995Z,88.50
2019-05-19T18:50:43.037Z,88.40
2019-05-19T18:53:11.978Z,88.40
2019-05-19T18:55:40.780Z,88.60
2019-05-19T18:58:09.728Z,88.50
2019-05-19T19:00:39.754Z,88.50
2019-05-19T19:03:08.836Z,88.50
2019-05-19T19:05:37.833Z,88.60
2019-05-19T19:08:06.701Z,88.50
2019-05-19T19:10:35.754Z,88.50
2019-05-19T19:13:05.111Z,88.60
2019-05-19T19:15:34.725Z,88.70
2019-05-19T19:18:03.618Z,88.70
2019-05-19T19:20:32.768Z,88.80
2019-05-19T19:23:01.565Z,88.70
2019-05-19T19:25:30.621Z,88.70
2019-05-19T19:27:59.799Z,88.70
2019-05-19T19:30:28.755Z,88.70
2019-05-19T19:32:57.851Z,88.80
2019-05-19T19:35:36.571Z,88.80
2019-05-19T19:37:57.804Z,88.70
2019-05-19T19:40:30.354Z,88.90
2019-05-19T19:42:59.834Z,89.10
2019-05-19T19:45:28.772Z,89.10
2019-05-19T19:47:57.775Z,89.00
2019-05-19T19:50:26.923Z,89.10
2019-05-19T19:52:55.757Z,89.30
2019-05-19T19:55:24.697Z,89.20
2019-05-19T19:57:53.971Z,89.40
2019-05-19T20:00:42.878Z,89.40
2019-05-19T20:03:12.301Z,89.60
2019-05-19T20:05:42.061Z,89.80
2019-05-19T20:08:11.161Z,89.80
2019-05-19T20:10:40.480Z,89.90
2019-05-19T20:13:09.521Z,90.00
2019-05-19T20:15:38.612Z,90.00
2019-05-19T20:18:07.873Z,89.90
2019-05-19T20:20:36.795Z,89.90
2019-05-19T20:23:05.797Z,89.90
2019-05-19T20:25:37.185Z,89.90
2019-05-19T20:28:05.857Z,89.90
2019-05-19T20:30:36.638Z,89.90
2019-05-19T20:33:06.393Z,90.00
2019-05-19T20:35:35.363Z,90.00
2019-05-19T20:38:04.500Z,90.00
2019-05-19T20:40:33.609Z,90.00
2019-05-19T20:43:02.973Z,90.00
2019-05-19T20:45:31.767Z,90.00
2019-05-19T20:48:00.711Z,90.00
2019-05-19T20:50:29.826Z,90.00
2019-05-19T20:52:58.903Z,90.00
2019-05-19T20:55:27.852Z,90.40
2019-05-19T20:57:56.816Z,90.00
2019-05-19T21:00:25.827Z,90.00
2019-05-19T21:02:54.848Z,90.00
2019-05-19T21:05:23.872Z,90.10
2019-05-19T21:07:52.716Z,90.00
2019-05-19T21:10:21.577Z,90.00
2019-05-19T21:12:50.431Z,90.00
2019-05-19T21:15:19.326Z,90.10
2019-05-19T21:17:48.198Z,90.00
2019-05-19T21:20:17.271Z,90.10
2019-05-19T21:22:46.162Z,90.10
2019-05-19T21:25:15.147Z,90.10
2019-05-19T21:27:43.920Z,90.10
2019-05-19T21:30:12.948Z,90.10
2019-05-19T21:32:41.745Z,90.20
2019-05-19T21:35:10.680Z,90.10
2019-05-19T21:37:39.612Z,90.20
2019-05-19T21:40:08.903Z,90.20
2019-05-19T21:42:37.822Z,90.30
2019-05-19T21:45:06.940Z,90.30
2019-05-19T21:47:35.784Z,90.30
2019-05-19T21:50:05.508Z,90.30
2019-05-19T21:52:34.376Z,90.40
2019-05-19T21:55:04.753Z,90.40
2019-05-19T21:57:33.653Z,90.30
2019-05-19T22:00:04.072Z,90.30
2019-05-19T22:02:33.264Z,90.30
2019-05-19T22:05:02.102Z,90.40
2019-05-19T22:07:46.144Z,90.40
2019-05-19T22:10:15.299Z,90.50
2019-05-19T22:12:44.419Z,90.50
2019-05-19T22:15:13.480Z,90.50
2019-05-19T22:17:42.533Z,90.50
2019-05-19T22:20:13.656Z,90.40
2019-05-19T22:22:43.006Z,90.40
2019-05-19T22:25:12.020Z,90.40
2019-05-19T22:27:40.810Z,90.30
2019-05-19T22:30:09.874Z,90.40
2019-05-19T22:32:38.715Z,90.30
2019-05-19T22:35:09.079Z,90.40
2019-05-19T22:37:37.875Z,90.40
2019-05-19T22:40:06.985Z,90.60
2019-05-19T22:42:36.006Z,90.60
2019-05-19T22:45:05.487Z,90.60
2019-05-19T22:47:34.265Z,90.60
2019-05-19T22:50:03.468Z,90.50
2019-05-19T22:52:32.515Z,90.40
2019-05-19T22:55:01.303Z,90.40
2019-05-19T22:57:30.652Z,90.60
2019-05-19T22:59:59.668Z,90.60
2019-05-19T23:02:28.504Z,90.60
2019-05-19T23:04:57.391Z,90.70
2019-05-19T23:07:26.452Z,90.60
2019-05-19T23:09:55.246Z,90.60
2019-05-19T23:12:24.098Z,90.50
2019-05-19T23:14:53.400Z,90.90
2019-05-19T23:17:22.317Z,90.50
2019-05-19T23:19:51.404Z,90.50
2019-05-19T23:22:20.462Z,90.50
2019-05-19T23:24:49.600Z,90.50
2019-05-19T23:27:18.398Z,90.60
2019-05-19T23:29:47.433Z,90.60
2019-05-19T23:32:16.544Z,90.60
2019-05-19T23:34:45.463Z,90.60
2019-05-19T23:37:14.411Z,90.60
2019-05-19T23:39:43.198Z,90.60
2019-05-19T23:42:12.023Z,90.60
2019-05-19T23:44:40.881Z,90.60
2019-05-19T23:47:09.975Z,90.60
2019-05-19T23:49:38.800Z,90.60
2019-05-19T23:52:07.964Z,90.60
2019-05-19T23:54:36.789Z,90.70
2019-05-19T23:57:05.826Z,90.70
2019-05-19T23:59:35.010Z,90.70
